Overview Statistics Trail Chart Weather Telemetry Raw packets
 

This is the latest recevied weather packets stored in our database for station/object N9DMT-13. If no packets are shown the sender has not sent any weather packets the latest 10 day(s).

<< 17 18 19 20 21 22 23 >>
Time Temp. Humidity Pressure Rain* Wind** Luminosity Snow
1777757823 17.78° C 32% 982.7 hPa 0 mm - - -
1777757522 16.67° C 33% 982.7 hPa 0 mm - - -
1777757221 16.67° C 31% 982.8 hPa 0 mm - - -
1777756921 17.22° C 32% 982.9 hPa 0 mm - - -
1777756620 16.67° C 34% 982.9 hPa 0 mm - - -
1777756319 15.56° C 33% 983 hPa 0 mm - - -
1777756019 15.56° C 33% 983.1 hPa 0 mm - - -
1777755718 16.67° C 32% 983.1 hPa 0 mm - - -
1777755417 15.56° C 34% 983.1 hPa 0 mm - - -
1777755116 16.67° C 31% 983 hPa 0 mm - - -
1777754816 16.67° C 31% 983.1 hPa 0 mm - - -
1777754515 16.67° C 31% 983.3 hPa 0 mm - - -
1777754213 17.22° C 30% 983.3 hPa 0 mm - - -
1777753913 17.22° C 32% 983.4 hPa 0 mm - - -
1777753612 17.22° C 30% 983.6 hPa 0 mm - - -
1777753311 16.67° C 33% 983.6 hPa 0 mm - - -
1777753010 15.56° C 34% 983.7 hPa 0 mm - - -
1777752710 16.11° C 32% 983.7 hPa 0 mm - - -
1777752409 16.11° C 30% 983.6 hPa 0 mm - - -
1777752108 15° C 33% 983.7 hPa 0 mm - - -
1777751807 15.56° C 33% 984 hPa 0 mm - - -
1777751506 15.56° C 34% 984 hPa 0 mm - - -
1777751206 15° C 35% 984.1 hPa 0 mm - - -
1777750905 15.56° C 32% 984.4 hPa 0 mm - - -
1777750604 15° C 34% 984.4 hPa 0 mm - - -

* Rain latest hour (hover to see other rain measurements)
** Current wind speed in m/s (hover to see current wind gust speed)